createdAt,value
2023-03-13T00:04:56.612Z,57
2023-03-13T00:09:56.356Z,57
2023-03-13T00:14:56.394Z,57
2023-03-13T00:19:56.448Z,57
2023-03-13T00:24:56.191Z,58
2023-03-13T00:29:56.409Z,58
2023-03-13T00:34:56.446Z,58
2023-03-13T00:39:56.211Z,58
2023-03-13T00:44:56.237Z,59
2023-03-13T00:49:56.381Z,59
2023-03-13T00:54:56.437Z,60
2023-03-13T00:59:56.218Z,60
2023-03-13T01:04:57.794Z,60
2023-03-13T01:09:56.415Z,61
2023-03-13T01:14:56.394Z,61
2023-03-13T01:19:56.426Z,62
2023-03-13T01:24:56.364Z,62
2023-03-13T01:29:56.481Z,62
2023-03-13T01:34:56.453Z,63
2023-03-13T01:39:56.259Z,63
2023-03-13T01:44:56.203Z,64
2023-03-13T01:49:56.478Z,64
2023-03-13T01:54:56.168Z,64
2023-03-13T01:59:56.194Z,65
2023-03-13T02:04:58.347Z,65
2023-03-13T02:09:56.132Z,65
2023-03-13T02:14:57.333Z,66
2023-03-13T02:19:56.330Z,66
2023-03-13T02:25:00.404Z,66
2023-03-13T02:29:56.392Z,67
2023-03-13T02:34:56.265Z,67
2023-03-13T02:39:56.183Z,67
2023-03-13T02:44:56.244Z,67
2023-03-13T02:49:56.258Z,67
2023-03-13T02:54:57.846Z,68
2023-03-13T02:59:56.037Z,68
2023-03-13T03:04:56.238Z,68
2023-03-13T03:09:56.331Z,68
2023-03-13T03:14:56.227Z,69
2023-03-13T03:19:56.172Z,69
2023-03-13T03:24:55.992Z,69
2023-03-13T03:29:56.119Z,69
2023-03-13T03:34:56.075Z,69
2023-03-13T03:39:56.153Z,70
2023-03-13T03:44:56.157Z,70
2023-03-13T03:49:56.232Z,70
2023-03-13T03:54:56.160Z,70
2023-03-13T03:59:56.097Z,70
2023-03-13T04:04:56.325Z,70
2023-03-13T04:09:56.165Z,70
2023-03-13T04:14:56.180Z,70
2023-03-13T04:19:56.259Z,70
2023-03-13T04:24:56.012Z,70
2023-03-13T04:29:56.277Z,70
2023-03-13T04:34:56.343Z,70
2023-03-13T04:39:55.983Z,71
2023-03-13T04:44:56.103Z,71
2023-03-13T04:49:56.005Z,71
2023-03-13T04:54:56.081Z,71
2023-03-13T04:59:56.012Z,71
2023-03-13T05:04:56.256Z,71
2023-03-13T05:09:56.167Z,71
2023-03-13T05:14:55.901Z,71
2023-03-13T05:19:56.688Z,71
2023-03-13T05:24:56.100Z,71
2023-03-13T05:29:56.128Z,71
2023-03-13T05:34:56.335Z,71
2023-03-13T05:39:56.169Z,71
2023-03-13T05:44:55.894Z,71
2023-03-13T05:49:56.495Z,71
2023-03-13T05:54:55.997Z,71
2023-03-13T05:59:55.910Z,70
2023-03-13T06:04:56.386Z,70
2023-03-13T06:09:56.006Z,70
2023-03-13T06:14:56.069Z,69
2023-03-13T06:19:56.132Z,69
2023-03-13T06:24:55.970Z,69
2023-03-13T06:29:55.922Z,68
2023-03-13T06:34:56.162Z,68
2023-03-13T06:39:56.314Z,68
2023-03-13T06:44:55.926Z,68
2023-03-13T06:49:56.055Z,68
2023-03-13T06:54:56.183Z,68
2023-03-13T06:59:56.055Z,68
2023-03-13T07:04:55.889Z,68
2023-03-13T07:09:56.174Z,65
2023-03-13T07:14:56.285Z,65
2023-03-13T07:19:55.859Z,65
2023-03-13T07:24:56.112Z,65
2023-03-13T07:29:55.941Z,65
2023-03-13T07:34:56.333Z,65
2023-03-13T07:39:55.851Z,65
2023-03-13T07:44:55.896Z,65
2023-03-13T07:49:56.301Z,65
2023-03-13T07:54:56.285Z,65
2023-03-13T07:59:55.853Z,65
2023-03-13T08:04:58.783Z,65
2023-03-13T08:09:56.042Z,65
2023-03-13T08:14:55.728Z,65
2023-03-13T08:19:56.345Z,65
2023-03-13T08:24:55.764Z,65
2023-03-13T08:29:55.948Z,65
2023-03-13T08:34:55.803Z,65
2023-03-13T08:39:55.721Z,65
2023-03-13T08:44:56.073Z,65
2023-03-13T08:49:55.991Z,65
2023-03-13T08:54:55.982Z,65
2023-03-13T08:59:55.959Z,65
2023-03-13T09:04:55.737Z,65
2023-03-13T09:09:55.721Z,65
2023-03-13T09:14:55.931Z,65
2023-03-13T09:20:00.653Z,65
2023-03-13T09:24:55.929Z,65
2023-03-13T09:29:55.723Z,65
2023-03-13T09:34:56.062Z,65
2023-03-13T09:39:55.949Z,65
2023-03-13T09:44:55.760Z,65
2023-03-13T09:49:55.935Z,54
2023-03-13T09:54:55.889Z,53
2023-03-13T09:59:55.797Z,51
2023-03-13T10:05:04.055Z,89.2
2023-03-13T10:09:55.761Z,89
2023-03-13T10:15:03.267Z,86.9
2023-03-13T10:19:58.977Z,84.7
2023-03-13T10:24:55.843Z,84.7
2023-03-13T10:29:55.609Z,81.7
2023-03-13T10:34:55.896Z,81
2023-03-13T10:40:10.301Z,77.7
2023-03-13T10:44:57.482Z,75.4
2023-03-13T10:49:56.988Z,77.7
2023-03-13T10:54:58.884Z,77.2
2023-03-13T10:59:55.706Z,76.3
2023-03-13T11:04:55.686Z,77.8
2023-03-13T11:09:55.847Z,76
2023-03-13T11:14:55.743Z,74.3
2023-03-13T11:19:55.707Z,73.8
2023-03-13T11:24:55.628Z,72.8
2023-03-13T11:29:55.714Z,70.6
2023-03-13T11:34:57.498Z,71.7
2023-03-13T11:40:01.912Z,70.4
2023-03-13T11:44:58.407Z,71
2023-03-13T11:49:55.883Z,72.5
2023-03-13T11:55:13.047Z,74.1
2023-03-13T11:59:55.633Z,73.8
2023-03-13T12:04:57.427Z,74.5
2023-03-13T12:09:55.504Z,75.6
2023-03-13T12:14:55.652Z,73.9
2023-03-13T12:19:55.650Z,71.6
2023-03-13T12:24:59.140Z,68.8
2023-03-13T12:29:57.924Z,66.7
2023-03-13T12:34:59.414Z,63.5
2023-03-13T12:39:55.759Z,62.3
2023-03-13T12:44:55.618Z,62.3
2023-03-13T12:50:27.566Z,62
2023-03-13T12:54:55.862Z,60.7
2023-03-13T12:59:59.045Z,59.4
2023-03-13T13:04:55.569Z,58.8
2023-03-13T13:09:55.729Z,57.9
2023-03-13T13:14:55.611Z,55.4
2023-03-13T13:19:55.699Z,57
2023-03-13T13:24:56.637Z,57
2023-03-13T13:29:55.693Z,55.8
2023-03-13T13:34:55.827Z,53.6
2023-03-13T13:40:15.898Z,56.3
2023-03-13T13:44:56.374Z,57.8
2023-03-13T13:49:55.727Z,58.4
2023-03-13T13:54:55.558Z,58.8
2023-03-13T13:59:55.460Z,59.1
2023-03-13T14:04:55.644Z,59.4
2023-03-13T14:09:55.694Z,59.1
2023-03-13T14:14:55.680Z,59.8
2023-03-13T14:19:55.829Z,60
2023-03-13T14:24:55.667Z,62
2023-03-13T14:29:55.711Z,62.4
2023-03-13T14:34:55.723Z,63.4
2023-03-13T14:39:55.602Z,63.4
2023-03-13T14:44:57.122Z,63.2
2023-03-13T14:49:55.776Z,62.6
2023-03-13T14:54:55.561Z,63.7
2023-03-13T15:00:23.623Z,64.3
2023-03-13T15:04:57.045Z,63.8
2023-03-13T15:09:55.890Z,64.3
2023-03-13T15:14:57.078Z,65.1
2023-03-13T15:19:55.713Z,63.8
2023-03-13T15:25:05.231Z,62.9
2023-03-13T15:29:55.379Z,61.2
2023-03-13T15:34:55.427Z,60.3
2023-03-13T15:39:55.535Z,61.9
2023-03-13T15:44:55.846Z,61.3
2023-03-13T15:49:55.617Z,61.8
2023-03-13T15:54:55.710Z,60.6
2023-03-13T15:59:55.411Z,62.8
2023-03-13T16:04:55.631Z,62.2
2023-03-13T16:09:55.376Z,62.6
2023-03-13T16:14:55.779Z,63
2023-03-13T16:19:55.536Z,62.3
2023-03-13T16:24:55.764Z,62.7
2023-03-13T16:29:55.766Z,63.5
2023-03-13T16:34:55.411Z,64.9
2023-03-13T16:39:55.352Z,65.2
2023-03-13T16:44:55.645Z,65.9
2023-03-13T16:49:55.371Z,66.3
2023-03-13T16:54:55.439Z,67.6
2023-03-13T16:59:55.819Z,68.3
2023-03-13T17:04:55.628Z,69.8
2023-03-13T17:09:55.564Z,69.1
2023-03-13T17:14:55.239Z,70
2023-03-13T17:19:56.536Z,71.3
2023-03-13T17:24:55.544Z,71.9
2023-03-13T17:29:55.264Z,72.2
2023-03-13T17:34:55.590Z,73.5
2023-03-13T17:39:55.281Z,73.6
2023-03-13T17:44:55.308Z,74
2023-03-13T17:49:55.332Z,75.1
2023-03-13T17:54:55.562Z,75.6
2023-03-13T17:59:55.347Z,75.8
2023-03-13T18:04:55.692Z,76.4
2023-03-13T18:09:55.424Z,75.8
2023-03-13T18:14:55.559Z,77.3
2023-03-13T18:19:55.992Z,78.1
2023-03-13T18:24:55.418Z,80.1
2023-03-13T18:29:55.549Z,82.4
2023-03-13T18:34:55.371Z,84
2023-03-13T18:39:55.423Z,84.4
2023-03-13T18:44:55.546Z,86.2
2023-03-13T18:49:55.533Z,87.6
2023-03-13T18:54:55.406Z,87.8
2023-03-13T18:59:55.646Z,87.9
2023-03-13T19:04:55.431Z,89.3
2023-03-13T19:09:56.598Z,89.2
2023-03-13T19:14:55.374Z,37
2023-03-13T19:19:55.785Z,89.9
2023-03-13T19:24:55.385Z,89.1
2023-03-13T19:29:55.491Z,89.7
2023-03-13T19:34:55.878Z,37
2023-03-13T19:39:55.492Z,38
2023-03-13T19:44:55.367Z,38
2023-03-13T19:49:56.980Z,38
2023-03-13T19:54:55.546Z,38
2023-03-13T19:59:56.598Z,38
2023-03-13T20:04:55.269Z,39
2023-03-13T20:09:55.349Z,39
2023-03-13T20:14:55.351Z,39
2023-03-13T20:19:58.434Z,39
2023-03-13T20:24:55.363Z,39
2023-03-13T20:29:55.274Z,39
2023-03-13T20:34:55.460Z,89.9
2023-03-13T20:39:55.291Z,39
2023-03-13T20:44:55.332Z,39
2023-03-13T20:49:55.348Z,39
2023-03-13T20:54:55.289Z,39
2023-03-13T20:59:55.198Z,39
2023-03-13T21:04:55.521Z,39
2023-03-13T21:09:55.761Z,89.8
2023-03-13T21:14:55.273Z,88.6
2023-03-13T21:19:55.388Z,87.9
2023-03-13T21:24:55.038Z,86.5
2023-03-13T21:29:55.407Z,86.3
2023-03-13T21:34:55.153Z,85.4
2023-03-13T21:39:55.567Z,85.7
2023-03-13T21:44:55.358Z,85.6
2023-03-13T21:49:55.586Z,85.2
2023-03-13T21:54:55.647Z,86
2023-03-13T21:59:55.224Z,86.2
2023-03-13T22:04:55.192Z,85.8
2023-03-13T22:09:55.404Z,85.6
2023-03-13T22:14:57.456Z,86.1
2023-03-13T22:19:55.125Z,86
2023-03-13T22:24:55.287Z,85.2
2023-03-13T22:29:55.128Z,84.9
2023-03-13T22:34:55.203Z,85.8
2023-03-13T22:39:55.234Z,86.5
2023-03-13T22:44:55.648Z,86.4
2023-03-13T22:49:55.248Z,86
2023-03-13T22:54:55.150Z,89.6
2023-03-13T23:04:55.046Z,39
2023-03-13T23:09:55.291Z,39
2023-03-13T23:14:55.189Z,40
2023-03-13T23:19:55.184Z,41
2023-03-13T23:24:55.097Z,41
2023-03-13T23:29:55.281Z,42
2023-03-13T23:34:54.955Z,42
2023-03-13T23:39:54.975Z,42
2023-03-13T23:44:55.105Z,43
2023-03-13T23:49:55.069Z,43
2023-03-13T23:54:55.289Z,43
2023-03-13T23:59:55.029Z,43
